Time;durP1;ratioP1;P1;durP2;ratioP2;P2;SDS_P1;SDS_P2;PMS_P1;PMS_P2;Temp;Humidity;BMP_temperature;BMP_pressure;BME280_temperature;BME280_humidity;BME280_pressure;Samples;Min_cycle;Max_cycle;Signal;HPM_P1;HPM_P2
2024/01/27 00:02:41;;;;;;;21.80;8.20;;;;;;;-128.00;-1.00;-1.00;2;363118666;363118666;-33
2024/01/27 00:14:00;;;;;;;21.80;8.20;;;;;;;-128.00;-1.00;-1.00;4;7505435;579196047;-32
2024/01/27 00:23:12;;;;;;;21.80;8.20;;;;;;;-128.00;-1.00;-1.00;2;543186000;543186000;-31
2024/01/27 00:33:08;;;;;;;21.80;8.20;;;;;;;-128.00;-1.00;-1.00;2;588199659;588199659;-32
2024/01/27 00:40:40;;;;;;;21.80;8.20;;;;;;;-128.00;-1.00;-1.00;2;444154382;444154382;-33
2024/01/27 00:46:51;;;;;;;21.80;8.20;;;;;;;-128.00;-1.00;-1.00;2;363125780;363125780;-33
2024/01/27 00:58:10;;;;;;;21.80;8.20;;;;;;;-128.00;-1.00;-1.00;4;7504398;579195706;-31
2024/01/27 01:07:21;;;;;;;21.80;8.20;;;;;;;-128.00;-1.00;-1.00;2;543191865;543191865;-33
2024/01/27 01:17:17;;;;;;;21.80;8.20;;;;;;;-128.00;-1.00;-1.00;2;588205803;588205803;-31
2024/01/27 01:24:50;;;;;;;21.80;8.20;;;;;;;-128.00;-1.00;-1.00;2;444155003;444155003;-31
2024/01/27 01:31:01;;;;;;;21.80;8.20;;;;;;;-128.00;-1.00;-1.00;2;363125611;363125611;-33
2024/01/27 01:42:23;;;;;;;21.80;8.20;;;;;;;-128.00;-1.00;-1.00;4;7505026;579198379;-34
2024/01/27 01:51:34;;;;;;;21.80;8.20;;;;;;;-128.00;-1.00;-1.00;2;543187457;543187457;-32
2024/01/27 02:34:05;;;;;;;14.20;1.40;;;;;;;3.35;95.00;99944.70;103335;1287;613420;-31
2024/01/27 02:36:30;;;;;;;8.10;1.20;;;;;;;3.50;94.66;99954.52;103253;1301;94268;-30
2024/01/27 02:38:56;;;;;;;12.10;0.90;;;;;;;3.58;94.44;99956.46;103459;1290;60470;-31
2024/01/27 02:41:22;;;;;;;7.40;1.20;;;;;;;3.71;93.61;99964.36;103522;1289;60483;-33
2024/01/27 02:43:47;;;;;;;8.40;1.10;;;;;;;3.88;93.08;99961.41;103489;1293;60484;-29
2024/01/27 02:46:15;;;;;;;6.40;1.40;;;;;;;4.12;91.70;99958.94;103480;1301;60448;-31
2024/01/27 02:48:42;;;;;;;8.60;1.50;;;;;;;4.05;91.39;99960.47;103474;1290;60521;-33
2024/01/27 02:51:08;;;;;;;7.50;1.50;;;;;;;4.11;91.26;99963.14;103506;1290;60485;-31
2024/01/27 02:53:34;;;;;;;8.70;2.10;;;;;;;4.25;90.33;99956.52;103446;1288;60445;-30
2024/01/27 02:55:59;;;;;;;7.30;1.40;;;;;;;4.19;90.33;99950.59;103527;1290;60438;-34
2024/01/27 02:58:25;;;;;;;6.50;1.00;;;;;;;4.22;89.67;99953.93;103428;1290;60815;-32
2024/01/27 03:00:50;;;;;;;5.10;1.20;;;;;;;4.09;89.11;99972.59;103414;1305;60886;-32
2024/01/27 03:03:16;;;;;;;8.70;1.10;;;;;;;4.14;89.19;99974.40;103442;1284;60928;-32
2024/01/27 03:05:41;;;;;;;9.50;1.00;;;;;;;4.08;89.67;99985.43;103336;1290;60975;-29
2024/01/27 03:08:07;;;;;;;8.00;1.40;;;;;;;4.05;89.74;99979.84;103534;1301;60772;-29
2024/01/27 03:10:33;;;;;;;6.30;1.30;;;;;;;4.27;88.67;99975.86;103464;1288;67988;-31
2024/01/27 03:12:59;;;;;;;5.80;0.90;;;;;;;4.23;88.37;99987.11;103425;1289;60779;-31
2024/01/27 03:15:24;;;;;;;14.70;1.30;;;;;;;4.23;87.77;99978.69;103541;1297;60906;-34
2024/01/27 03:17:50;;;;;;;12.60;0.80;;;;;;;4.08;87.48;99991.59;103459;1290;60832;-30
2024/01/27 03:20:16;;;;;;;7.10;1.50;;;;;;;4.05;87.17;99974.86;103505;1297;60831;-30
2024/01/27 03:22:41;;;;;;;7.60;1.20;;;;;;;4.06;86.97;99991.81;103366;1300;60857;-31
2024/01/27 03:25:10;;;;;;;7.80;1.00;;;;;;;3.99;87.57;99989.10;103518;1287;60862;-31
2024/01/27 03:27:36;;;;;;;8.80;1.30;;;;;;;4.05;87.41;100007.09;103526;1300;60931;-32
2024/01/27 03:30:03;;;;;;;9.10;1.50;;;;;;;4.17;86.56;100001.77;103486;1289;60793;-32
2024/01/27 03:32:33;;;;;;;16.80;1.20;;;;;;;4.32;84.86;99998.43;103534;1288;61026;-31
2024/01/27 03:34:59;;;;;;;11.80;1.80;;;;;;;4.36;84.52;100008.72;103543;1286;60800;-33
2024/01/27 03:37:25;;;;;;;10.80;1.10;;;;;;;4.48;83.83;95527.14;103473;1285;80006;-31
2024/01/27 03:39:50;;;;;;;7.00;1.10;;;;;;;4.33;84.19;100010.58;103627;1291;60912;-32
2024/01/27 03:42:16;;;;;;;10.00;1.60;;;;;;;4.22;84.06;100015.67;103391;1297;60885;-29
2024/01/27 03:44:42;;;;;;;7.40;1.40;;;;;;;4.37;83.94;100022.48;103293;1299;60865;-31
2024/01/27 03:47:07;;;;;;;8.50;1.10;;;;;;;4.33;83.86;100021.07;103536;1294;60916;-31
2024/01/27 03:49:33;;;;;;;7.10;1.80;;;;;;;4.22;84.95;100027.21;103482;1288;60884;-30
2024/01/27 03:51:58;;;;;;;8.50;2.30;;;;;;;4.26;84.55;100025.23;103452;1299;60831;-31
2024/01/27 03:54:24;;;;;;;8.50;1.00;;;;;;;4.56;82.45;100026.17;103396;1287;60871;-32
2024/01/27 03:56:49;;;;;;;9.70;1.80;;;;;;;4.39;82.23;100020.81;103474;1290;60866;-30
2024/01/27 03:59:15;;;;;;;6.90;0.70;;;;;;;4.38;82.21;100030.33;103402;1302;60941;-31
2024/01/27 04:01:41;;;;;;;10.60;1.70;;;;;;;4.23;82.29;100037.88;103424;1297;60882;-31
2024/01/27 04:04:06;;;;;;;7.20;1.60;;;;;;;4.23;82.36;100029.04;103428;1289;60900;-29
2024/01/27 04:06:38;;;;;;;9.90;1.00;;;;;;;4.29;81.98;100025.13;103427;1305;61482;-33
2024/01/27 04:09:04;;;;;;;7.70;1.70;;;;;;;4.28;81.44;100031.26;103480;1290;72227;-29
2024/01/27 04:11:29;;;;;;;9.00;1.60;;;;;;;4.59;80.21;100013.45;103503;1288;60934;-30
2024/01/27 04:13:55;;;;;;;8.70;1.20;;;;;;;4.39;79.86;100027.92;103478;1298;60889;-30
2024/01/27 04:16:21;;;;;;;6.90;1.40;;;;;;;4.33;80.28;100034.32;103450;1289;60758;-32
2024/01/27 04:18:46;;;;;;;9.30;1.30;;;;;;;4.39;80.25;100030.61;103447;1300;60899;-33
2024/01/27 04:21:12;;;;;;;11.10;0.60;;;;;;;4.30;80.33;100041.73;103527;1290;60998;-31
2024/01/27 04:23:38;;;;;;;11.60;1.70;;;;;;;4.25;81.18;100041.46;103359;1301;60950;-30
2024/01/27 04:26:06;;;;;;;10.70;1.60;;;;;;;4.41;79.99;100030.38;103462;1304;60966;-33
2024/01/27 04:28:31;;;;;;;7.90;1.10;;;;;;;4.16;79.95;100025.81;103504;1285;60782;-31
2024/01/27 04:30:57;;;;;;;18.50;1.40;;;;;;;4.15;80.91;100034.35;103478;1290;60902;-32
2024/01/27 04:33:23;;;;;;;8.20;1.30;;;;;;;4.22;80.43;100018.73;103470;1297;60882;-32
2024/01/27 04:35:48;;;;;;;11.60;1.50;;;;;;;4.26;80.07;100030.17;103446;1301;60902;-31
2024/01/27 04:38:14;;;;;;;8.00;1.40;;;;;;;-131.34;19.20;23753.89;101405;1285;1002362;-31
2024/01/27 04:40:40;;;;;;;8.70;1.90;;;;;;;-128.00;-1.00;-1.00;100570;1290;1002534;-30
2024/01/27 04:43:05;;;;;;;9.90;1.90;;;;;;;-128.00;-1.00;-1.00;100669;1284;1012576;-31
2024/01/27 04:45:31;;;;;;;11.10;1.60;;;;;;;-128.00;-1.00;-1.00;100594;1290;1002336;-30
2024/01/27 04:47:57;;;;;;;7.10;0.90;;;;;;;-128.00;-1.00;-1.00;100729;1289;1002544;-30
2024/01/27 04:50:23;;;;;;;9.30;1.60;;;;;;;-128.00;-1.00;-1.00;100597;1289;1002303;-31
2024/01/27 04:52:48;;;;;;;;;;;;;;;-128.00;-1.00;-1.00;100660;1290;1002760;-31
2024/01/27 04:55:14;;;;;;;8.50;1.20;;;;;;;-128.00;-1.00;-1.00;100610;1289;1002936;-31
2024/01/27 04:57:40;;;;;;;9.50;1.90;;;;;;;-128.00;-1.00;-1.00;100664;1287;1004076;-29
2024/01/27 05:00:10;;;;;;;8.40;2.10;;;;;;;-128.00;-1.00;-1.00;100722;1289;1004092;-30
2024/01/27 05:02:36;;;;;;;13.00;1.30;;;;;;;-128.00;-1.00;-1.00;100674;1289;1011933;-31
2024/01/27 05:05:03;;;;;;;11.40;1.10;;;;;;;-128.00;-1.00;-1.00;100673;1284;1002962;-29
2024/01/27 05:07:28;;;;;;;8.40;2.30;;;;;;;-128.00;-1.00;-1.00;100696;1291;1002682;-35
2024/01/27 05:09:54;;;;;;;14.90;2.40;;;;;;;-128.00;-1.00;-1.00;100756;1289;1003759;-31
2024/01/27 05:12:20;;;;;;;10.00;2.40;;;;;;;-128.00;-1.00;-1.00;100696;1285;1002901;-35
2024/01/27 05:14:45;;;;;;;11.20;1.60;;;;;;;-128.00;-1.00;-1.00;100710;1289;1003716;-32
2024/01/27 05:17:11;;;;;;;8.00;1.90;;;;;;;-128.00;-1.00;-1.00;100648;1288;1002727;-30
2024/01/27 05:19:37;;;;;;;11.30;1.60;;;;;;;-128.00;-1.00;-1.00;100640;1289;1002215;-32
2024/01/27 05:22:02;;;;;;;9.40;1.60;;;;;;;-128.00;-1.00;-1.00;100679;1286;1003380;-31
2024/01/27 05:24:28;;;;;;;;;;;;;;;-128.00;-1.00;-1.00;100796;1284;1002910;-31
2024/01/27 05:26:54;;;;;;;9.10;2.60;;;;;;;-128.00;-1.00;-1.00;100623;1288;1002745;-30
2024/01/27 05:29:19;;;;;;;8.20;1.80;;;;;;;-128.00;-1.00;-1.00;100664;1289;1003842;-32
2024/01/27 05:31:45;;;;;;;7.50;1.60;;;;;;;-128.00;-1.00;-1.00;100828;1289;1003551;-30
2024/01/27 05:34:11;;;;;;;8.50;1.10;;;;;;;-128.00;-1.00;-1.00;100678;1290;1002265;-32
2024/01/27 05:36:37;;;;;;;11.00;1.40;;;;;;;-128.00;-1.00;-1.00;100634;1286;1002619;-31
2024/01/27 05:39:06;;;;;;;12.20;1.20;;;;;;;-128.00;-1.00;-1.00;100508;1286;1003580;-31
2024/01/27 05:41:32;;;;;;;18.20;1.70;;;;;;;-128.00;-1.00;-1.00;100628;1285;1013393;-32
2024/01/27 05:43:58;;;;;;;8.70;1.70;;;;;;;-128.00;-1.00;-1.00;100573;1290;1004737;-32
2024/01/27 05:46:24;;;;;;;14.80;1.30;;;;;;;-128.00;-1.00;-1.00;100691;1290;1002534;-29
2024/01/27 05:48:53;;;;;;;8.50;1.70;;;;;;;-128.00;-1.00;-1.00;100703;1287;1002942;-30
2024/01/27 05:51:19;;;;;;;12.20;1.10;;;;;;;-128.00;-1.00;-1.00;100698;1289;1010306;-30
2024/01/27 05:53:46;;;;;;;6.40;1.00;;;;;;;-128.00;-1.00;-1.00;100579;1287;1002466;-30
2024/01/27 05:56:11;;;;;;;10.30;1.00;;;;;;;-128.00;-1.00;-1.00;100670;1287;1002492;-32
2024/01/27 05:58:37;;;;;;;9.10;0.90;;;;;;;-128.00;-1.00;-1.00;100688;1285;1004372;-32
2024/01/27 06:01:03;;;;;;;;;;;;;;;-128.00;-1.00;-1.00;100737;1288;1002529;-32
2024/01/27 06:03:29;;;;;;;13.30;1.50;;;;;;;-128.00;-1.00;-1.00;100618;1285;1003725;-29
2024/01/27 06:05:54;;;;;;;7.40;1.40;;;;;;;-128.00;-1.00;-1.00;100621;1290;1002784;-36
2024/01/27 06:08:20;;;;;;;6.20;0.90;;;;;;;-128.00;-1.00;-1.00;100670;1289;1002760;-31
2024/01/27 06:10:47;;;;;;;7.90;1.80;;;;;;;-128.00;-1.00;-1.00;100627;1285;1003028;-32
2024/01/27 06:13:12;;;;;;;7.60;1.10;;;;;;;-128.00;-1.00;-1.00;100604;1290;1002355;-31
2024/01/27 06:15:38;;;;;;;14.00;2.10;;;;;;;-128.00;-1.00;-1.00;100496;1289;1002814;-33
2024/01/27 06:18:04;;;;;;;11.00;1.10;;;;;;;-128.00;-1.00;-1.00;100546;1286;1002668;-30
2024/01/27 06:20:29;;;;;;;;;;;;;;;-128.00;-1.00;-1.00;100656;1287;1002816;-30
2024/01/27 06:22:55;;;;;;;9.30;1.00;;;;;;;-128.00;-1.00;-1.00;100589;1286;1002826;-31
2024/01/27 06:25:21;;;;;;;6.90;1.00;;;;;;;-128.00;-1.00;-1.00;100599;1286;1004130;-30
2024/01/27 06:27:47;;;;;;;10.10;1.70;;;;;;;-128.00;-1.00;-1.00;100700;1288;1002303;-31
2024/01/27 06:30:13;;;;;;;;;;;;;;;-128.00;-1.00;-1.00;100736;1286;1002997;-33
2024/01/27 06:32:39;;;;;;;9.30;1.90;;;;;;;-128.00;-1.00;-1.00;100674;1286;1002491;-29
2024/01/27 06:35:05;;;;;;;11.90;2.00;;;;;;;-128.00;-1.00;-1.00;100627;1286;1002749;-30
2024/01/27 06:37:31;;;;;;;14.10;2.00;;;;;;;-128.00;-1.00;-1.00;100786;1287;1002633;-34
2024/01/27 06:39:56;;;;;;;10.40;1.70;;;;;;;-128.00;-1.00;-1.00;100657;1289;1002762;-30
2024/01/27 06:42:22;;;;;;;11.70;1.60;;;;;;;-128.00;-1.00;-1.00;100643;1289;1003068;-31
2024/01/27 06:44:47;;;;;;;9.40;1.50;;;;;;;-128.00;-1.00;-1.00;100593;1289;1002570;-32
2024/01/27 06:47:13;;;;;;;7.30;1.40;;;;;;;-128.00;-1.00;-1.00;100636;1286;1002966;-30
2024/01/27 06:49:39;;;;;;;;;;;;;;;-128.00;-1.00;-1.00;100662;1286;1002130;-30
2024/01/27 06:52:05;;;;;;;12.00;2.30;;;;;;;-128.00;-1.00;-1.00;100762;1287;1003224;-33
2024/01/27 06:54:31;;;;;;;12.30;2.10;;;;;;;-128.00;-1.00;-1.00;100662;1287;1003556;-30
2024/01/27 06:56:59;;;;;;;14.60;1.50;;;;;;;-128.00;-1.00;-1.00;100673;1289;1002869;-32
2024/01/27 06:59:24;;;;;;;11.20;2.10;;;;;;;-128.00;-1.00;-1.00;100733;1288;1013216;-32
2024/01/27 07:01:50;;;;;;;10.70;1.80;;;;;;;-128.00;-1.00;-1.00;100359;1287;1002677;-30
2024/01/27 07:04:17;;;;;;;9.90;2.20;;;;;;;-128.00;-1.00;-1.00;100754;1285;1004095;-33
2024/01/27 07:06:43;;;;;;;10.90;2.20;;;;;;;-128.00;-1.00;-1.00;100644;1289;1003589;-33
2024/01/27 07:09:10;;;;;;;8.30;1.50;;;;;;;-128.00;-1.00;-1.00;100673;1286;1003377;-31
2024/01/27 07:11:36;;;;;;;8.30;1.20;;;;;;;-128.00;-1.00;-1.00;100588;1288;1002836;-32
2024/01/27 07:14:09;;;;;;;11.40;1.70;;;;;;;-128.00;-1.00;-1.00;100593;1288;1003035;-30
2024/01/27 07:16:34;;;;;;;10.60;1.60;;;;;;;-128.00;-1.00;-1.00;100610;1285;1006602;-30
2024/01/27 07:19:00;;;;;;;16.00;2.70;;;;;;;-128.00;-1.00;-1.00;100732;1285;1003830;-32
2024/01/27 07:21:26;;;;;;;11.00;2.30;;;;;;;-128.00;-1.00;-1.00;100586;1285;1002861;-30
2024/01/27 07:23:53;;;;;;;7.20;1.00;;;;;;;-128.00;-1.00;-1.00;100682;1288;1002305;-32
2024/01/27 07:26:19;;;;;;;11.00;2.60;;;;;;;-128.00;-1.00;-1.00;100521;1290;1002823;-29
2024/01/27 07:28:45;;;;;;;8.10;1.80;;;;;;;-128.00;-1.00;-1.00;100630;1289;1003171;-31
2024/01/27 07:31:11;;;;;;;9.80;1.70;;;;;;;-128.00;-1.00;-1.00;100723;1285;1002316;-32
2024/01/27 07:33:38;;;;;;;7.40;0.90;;;;;;;-128.00;-1.00;-1.00;100550;1288;1003919;-32
2024/01/27 07:36:04;;;;;;;11.30;2.40;;;;;;;-128.00;-1.00;-1.00;100652;1284;1003035;-30
2024/01/27 07:38:30;;;;;;;;;;;;;;;-128.00;-1.00;-1.00;100710;1285;1002147;-32
2024/01/27 07:40:55;;;;;;;13.40;2.40;;;;;;;-128.00;-1.00;-1.00;100520;1290;1004569;-30
2024/01/27 07:43:21;;;;;;;9.20;1.60;;;;;;;-128.00;-1.00;-1.00;100377;1292;1003501;-31
2024/01/27 07:45:47;;;;;;;8.10;2.20;;;;;;;-128.00;-1.00;-1.00;100609;1285;1003052;-33
2024/01/27 07:48:12;;;;;;;7.70;2.30;;;;;;;-128.00;-1.00;-1.00;100740;1289;1002768;-31
2024/01/27 07:50:38;;;;;;;8.50;1.70;;;;;;;-128.00;-1.00;-1.00;100584;1289;1002768;-30
2024/01/27 07:53:03;;;;;;;9.70;2.00;;;;;;;-128.00;-1.00;-1.00;100623;1284;1002566;-33
2024/01/27 07:55:29;;;;;;;9.30;1.70;;;;;;;-128.00;-1.00;-1.00;100608;1285;1002777;-33
2024/01/27 07:57:55;;;;;;;6.30;1.00;;;;;;;-128.00;-1.00;-1.00;100626;1284;1003396;-31
2024/01/27 08:00:20;;;;;;;7.90;1.70;;;;;;;-128.00;-1.00;-1.00;100570;1285;1003096;-33
2024/01/27 08:02:46;;;;;;;11.40;3.00;;;;;;;-128.00;-1.00;-1.00;100688;1285;1003361;-33
2024/01/27 08:05:12;;;;;;;;;;;;;;;-128.00;-1.00;-1.00;100589;1287;1002712;-32
2024/01/27 08:07:38;;;;;;;12.50;3.10;;;;;;;-128.00;-1.00;-1.00;100643;1284;1003409;-31
2024/01/27 08:10:04;;;;;;;10.00;1.70;;;;;;;-128.00;-1.00;-1.00;100695;1289;1002653;-32
2024/01/27 08:12:30;;;;;;;12.60;3.00;;;;;;;-128.00;-1.00;-1.00;100587;1285;1003095;-31
2024/01/27 08:14:56;;;;;;;7.50;1.50;;;;;;;-128.00;-1.00;-1.00;100558;1286;1002675;-30
2024/01/27 08:17:21;;;;;;;12.50;3.90;;;;;;;-128.00;-1.00;-1.00;100454;1286;1003029;-30
2024/01/27 08:19:49;;;;;;;14.30;1.20;;;;;;;-128.00;-1.00;-1.00;100671;1284;1002919;-33
2024/01/27 08:22:14;;;;;;;21.50;3.30;;;;;;;-128.00;-1.00;-1.00;100684;1289;1002786;-30
2024/01/27 08:24:40;;;;;;;10.80;3.10;;;;;;;-128.00;-1.00;-1.00;100608;1288;1003361;-33
2024/01/27 08:27:06;;;;;;;10.50;2.70;;;;;;;-128.00;-1.00;-1.00;100641;1284;1004570;-31
2024/01/27 08:29:31;;;;;;;23.90;4.40;;;;;;;-128.00;-1.00;-1.00;100729;1287;1004208;-31
2024/01/27 08:31:57;;;;;;;13.90;2.10;;;;;;;-128.00;-1.00;-1.00;100583;1286;1002765;-32
2024/01/27 08:34:23;;;;;;;13.40;2.10;;;;;;;-128.00;-1.00;-1.00;100620;1287;1002869;-31
2024/01/27 08:36:48;;;;;;;13.30;3.00;;;;;;;-128.00;-1.00;-1.00;100674;1286;1002823;-33
2024/01/27 08:39:14;;;;;;;20.90;3.50;;;;;;;-128.00;-1.00;-1.00;100580;1290;1002632;-33
2024/01/27 08:41:40;;;;;;;12.00;2.60;;;;;;;-128.00;-1.00;-1.00;100588;1288;1004416;-31
2024/01/27 08:44:05;;;;;;;17.50;2.60;;;;;;;-128.00;-1.00;-1.00;100620;1290;1003136;-33
2024/01/27 08:46:31;;;;;;;18.70;2.50;;;;;;;-128.00;-1.00;-1.00;100595;1285;1003312;-33
2024/01/27 08:48:56;;;;;;;10.10;2.60;;;;;;;-128.00;-1.00;-1.00;100663;1285;1004445;-33
2024/01/27 08:51:22;;;;;;;15.70;3.80;;;;;;;-128.00;-1.00;-1.00;100759;1284;1004231;-34
2024/01/27 08:53:51;;;;;;;19.60;2.50;;;;;;;-128.00;-1.00;-1.00;100627;1287;1004355;-33
2024/01/27 08:56:20;;;;;;;13.70;2.50;;;;;;;-128.00;-1.00;-1.00;100645;1289;1013460;-32
2024/01/27 08:58:47;;;;;;;14.30;3.80;;;;;;;-128.00;-1.00;-1.00;100312;1285;1006004;-31
2024/01/27 09:01:14;;;;;;;9.20;1.50;;;;;;;-128.00;-1.00;-1.00;99901;1286;1003401;-34
2024/01/27 09:03:40;;;;;;;12.60;2.50;;;;;;;-128.00;-1.00;-1.00;99871;1287;1002548;-33
2024/01/27 09:06:07;;;;;;;;;;;;;;;-128.00;-1.00;-1.00;100019;1284;1003394;-30
2024/01/27 09:08:35;;;;;;;10.70;1.50;;;;;;;-128.00;-1.00;-1.00;99950;1289;1002685;-31
2024/01/27 09:11:02;;;;;;;15.20;3.10;;;;;;;-128.00;-1.00;-1.00;99846;1285;1003206;-31
2024/01/27 09:13:27;;;;;;;16.30;3.20;;;;;;;-128.00;-1.00;-1.00;99816;1285;1003259;-30
2024/01/27 09:15:53;;;;;;;18.60;3.50;;;;;;;-128.00;-1.00;-1.00;99920;1284;1004572;-32
2024/01/27 09:18:19;;;;;;;10.40;2.10;;;;;;;-128.00;-1.00;-1.00;99858;1285;1003150;-31
2024/01/27 09:20:44;;;;;;;10.90;2.70;;;;;;;-128.00;-1.00;-1.00;99841;1284;1055487;-32
2024/01/27 09:23:11;;;;;;;12.20;2.90;;;;;;;-128.00;-1.00;-1.00;99814;1289;1003262;-31
2024/01/27 09:25:37;;;;;;;12.10;1.80;;;;;;;-128.00;-1.00;-1.00;100014;1289;1003447;-32
2024/01/27 09:28:03;;;;;;;12.00;1.40;;;;;;;-128.00;-1.00;-1.00;99892;1289;1003220;-31
2024/01/27 09:30:28;;;;;;;7.90;2.30;;;;;;;-128.00;-1.00;-1.00;99860;1284;1059469;-30
2024/01/27 09:32:54;;;;;;;13.10;3.40;;;;;;;-128.00;-1.00;-1.00;99918;1284;1002744;-35
2024/01/27 09:35:20;;;;;;;18.50;3.60;;;;;;;-128.00;-1.00;-1.00;99875;1285;1003302;-33
2024/01/27 09:37:46;;;;;;;7.00;2.40;;;;;;;-128.00;-1.00;-1.00;99910;1298;1038483;-32
2024/01/27 09:40:12;;;;;;;19.80;4.90;;;;;;;-128.00;-1.00;-1.00;99818;1285;1005129;-30
2024/01/27 09:42:41;;;;;;;;;;;;;;;-128.00;-1.00;-1.00;99885;1284;1003379;-32
2024/01/27 09:45:07;;;;;;;17.50;5.70;;;;;;;-128.00;-1.00;-1.00;99828;1284;1059180;-32
2024/01/27 09:47:34;;;;;;;19.10;6.00;;;;;;;-128.00;-1.00;-1.00;99802;1285;1003365;-32
2024/01/27 09:49:59;;;;;;;12.60;3.80;;;;;;;-128.00;-1.00;-1.00;99743;1287;1003899;-33
2024/01/27 09:52:25;;;;;;;16.00;5.00;;;;;;;-128.00;-1.00;-1.00;99868;1284;1002894;-32
2024/01/27 09:54:50;;;;;;;12.80;4.50;;;;;;;-128.00;-1.00;-1.00;99949;1285;1002909;-31
2024/01/27 09:57:18;;;;;;;10.80;3.60;;;;;;;-128.00;-1.00;-1.00;99881;1287;1004021;-31
2024/01/27 09:59:44;;;;;;;13.00;3.00;;;;;;;-128.00;-1.00;-1.00;99825;1285;1003354;-32
2024/01/27 10:02:11;;;;;;;;;;;;;;;-128.00;-1.00;-1.00;99917;1285;1003049;-32
2024/01/27 10:04:38;;;;;;;13.50;1.80;;;;;;;-128.00;-1.00;-1.00;99868;1284;1003244;-31
2024/01/27 10:07:04;;;;;;;10.80;1.30;;;;;;;-128.00;-1.00;-1.00;99945;1284;1002881;-32
2024/01/27 10:09:29;;;;;;;20.20;2.70;;;;;;;-128.00;-1.00;-1.00;99901;1285;1003055;-31
2024/01/27 10:11:55;;;;;;;25.30;7.30;;;;;;;-128.00;-1.00;-1.00;99883;1285;1003433;-30
2024/01/27 10:14:21;;;;;;;12.30;1.70;;;;;;;-128.00;-1.00;-1.00;99883;1289;1038369;-32
2024/01/27 10:16:47;;;;;;;11.30;1.60;;;;;;;-128.00;-1.00;-1.00;99824;1284;1003761;-31
2024/01/27 10:19:16;;;;;;;15.20;1.70;;;;;;;-128.00;-1.00;-1.00;99898;1285;1003235;-31
2024/01/27 10:21:42;;;;;;;23.40;4.60;;;;;;;-128.00;-1.00;-1.00;99923;1289;1059022;-31
2024/01/27 10:24:08;;;;;;;18.50;1.60;;;;;;;-128.00;-1.00;-1.00;99846;1284;1003438;-32
2024/01/27 10:26:34;;;;;;;10.30;1.70;;;;;;;-128.00;-1.00;-1.00;99892;1284;1003134;-31
2024/01/27 10:29:01;;;;;;;17.10;2.00;;;;;;;-128.00;-1.00;-1.00;99930;1284;1002980;-30
2024/01/27 10:31:27;;;;;;;13.00;2.10;;;;;;;-128.00;-1.00;-1.00;99827;1284;1003737;-32
2024/01/27 10:33:54;;;;;;;14.00;2.00;;;;;;;-128.00;-1.00;-1.00;99874;1284;1003757;-32
2024/01/27 10:36:20;;;;;;;12.80;1.70;;;;;;;-128.00;-1.00;-1.00;99920;1284;1002976;-34
2024/01/27 10:38:46;;;;;;;10.00;2.10;;;;;;;-128.00;-1.00;-1.00;99841;1285;1003827;-32
2024/01/27 10:41:11;;;;;;;7.90;1.70;;;;;;;-128.00;-1.00;-1.00;99885;1289;1002904;-32
2024/01/27 10:43:38;;;;;;;8.70;1.40;;;;;;;-128.00;-1.00;-1.00;99821;1284;1060602;-32
2024/01/27 10:46:05;;;;;;;11.70;1.50;;;;;;;-128.00;-1.00;-1.00;99860;1284;1003227;-29
2024/01/27 10:48:32;;;;;;;10.50;2.10;;;;;;;-128.00;-1.00;-1.00;99783;1285;1003265;-30
2024/01/27 10:50:58;;;;;;;11.20;1.20;;;;;;;-128.00;-1.00;-1.00;99874;1285;1003594;-31
2024/01/27 10:53:31;;;;;;;;;;;;;;;-128.00;-1.00;-1.00;99899;1285;1003422;-31
2024/01/27 10:55:57;;;;;;;11.10;1.30;;;;;;;-128.00;-1.00;-1.00;99876;1284;1046074;-31
2024/01/27 10:58:24;;;;;;;14.10;1.70;;;;;;;-128.00;-1.00;-1.00;99822;1284;1003099;-31
2024/01/27 11:00:50;;;;;;;11.70;1.80;;;;;;;-128.00;-1.00;-1.00;99858;1284;1004186;-32
2024/01/27 11:03:15;;;;;;;;;;;;;;;-128.00;-1.00;-1.00;99970;1286;1003347;-31
2024/01/27 11:05:41;;;;;;;12.40;2.20;;;;;;;-128.00;-1.00;-1.00;100002;1284;1002943;-32
2024/01/27 11:08:07;;;;;;;14.00;1.60;;;;;;;-128.00;-1.00;-1.00;99846;1284;1046051;-30
2024/01/27 11:10:35;;;;;;;12.50;1.60;;;;;;;-128.00;-1.00;-1.00;99832;1286;1004413;-30
2024/01/27 11:13:03;;;;;;;8.30;1.60;;;;;;;-128.00;-1.00;-1.00;99731;1287;1002637;-29
2024/01/27 11:15:29;;;;;;;11.90;1.90;;;;;;;-128.00;-1.00;-1.00;99804;1284;1003817;-29
2024/01/27 11:17:58;;;;;;;8.00;1.30;;;;;;;-128.00;-1.00;-1.00;99823;1284;1002606;-32
2024/01/27 11:20:24;;;;;;;11.50;1.10;;;;;;;-128.00;-1.00;-1.00;99932;1284;1046551;-31
2024/01/27 11:22:50;;;;;;;8.60;1.40;;;;;;;-128.00;-1.00;-1.00;99808;1284;1003272;-32
2024/01/27 11:25:17;;;;;;;12.90;3.20;;;;;;;-128.00;-1.00;-1.00;99771;1287;1058546;-31
2024/01/27 11:27:44;;;;;;;14.10;1.80;;;;;;;-128.00;-1.00;-1.00;99849;1284;1003364;-31
2024/01/27 11:30:28;;;;;;;19.40;5.20;;;;;;;-128.00;-1.00;-1.00;99922;1287;1004537;-32
2024/01/27 11:32:56;;;;;;;23.20;5.20;;;;;;;-128.00;-1.00;-1.00;99873;1285;1045895;-31
2024/01/27 11:35:22;;;;;;;19.00;2.00;;;;;;;-128.00;-1.00;-1.00;99820;1285;1002847;-31
2024/01/27 11:37:48;;;;;;;11.20;2.20;;;;;;;-128.00;-1.00;-1.00;99879;1284;1004305;-31
2024/01/27 11:40:15;;;;;;;11.20;1.50;;;;;;;-128.00;-1.00;-1.00;99871;1289;1003889;-31
2024/01/27 11:42:42;;;;;;;15.60;2.60;;;;;;;-128.00;-1.00;-1.00;99833;1284;1003151;-33
2024/01/27 11:45:10;;;;;;;19.60;3.80;;;;;;;-128.00;-1.00;-1.00;99860;1284;1003560;-32
2024/01/27 11:47:36;;;;;;;10.30;3.10;;;;;;;-128.00;-1.00;-1.00;99908;1285;1046845;-32
2024/01/27 11:50:03;;;;;;;12.70;2.00;;;;;;;-128.00;-1.00;-1.00;99892;1284;1003525;-29
2024/01/27 11:52:28;;;;;;;13.10;1.90;;;;;;;-128.00;-1.00;-1.00;99890;1284;1003410;-30
2024/01/27 11:54:59;;;;;;;14.50;2.50;;;;;;;-128.00;-1.00;-1.00;99850;1284;1002996;-32
2024/01/27 11:57:25;;;;;;;12.50;2.10;;;;;;;-128.00;-1.00;-1.00;99826;1289;1038363;-32
2024/01/27 11:59:51;;;;;;;;;;;;;;;-128.00;-1.00;-1.00;99860;1285;1002725;-31
2024/01/27 12:02:17;;;;;;;16.70;2.00;;;;;;;-128.00;-1.00;-1.00;99885;1284;1002805;-32
2024/01/27 12:04:42;;;;;;;13.30;1.80;;;;;;;-128.00;-1.00;-1.00;99833;1284;1005229;-30
2024/01/27 12:07:09;;;;;;;17.30;2.20;;;;;;;-128.00;-1.00;-1.00;99807;1284;1012806;-32
2024/01/27 12:09:37;;;;;;;15.00;2.00;;;;;;;-128.00;-1.00;-1.00;99932;1287;1004337;-31
2024/01/27 12:12:04;;;;;;;13.60;1.40;;;;;;;-128.00;-1.00;-1.00;99869;1288;1045548;-30
2024/01/27 12:14:44;;;;;;;12.90;1.70;;;;;;;-128.00;-1.00;-1.00;99887;1284;1003829;-30
2024/01/27 12:17:10;;;;;;;13.10;2.30;;;;;;;-128.00;-1.00;-1.00;99849;1284;1054954;-30
2024/01/27 12:19:37;;;;;;;12.10;2.20;;;;;;;-128.00;-1.00;-1.00;99857;1284;1003229;-31
2024/01/27 12:22:03;;;;;;;13.00;2.00;;;;;;;-128.00;-1.00;-1.00;99869;1284;1003620;-32
2024/01/27 12:24:29;;;;;;;11.20;2.30;;;;;;;-128.00;-1.00;-1.00;99919;1284;1003184;-31
2024/01/27 12:26:58;;;;;;;10.70;1.80;;;;;;;-128.00;-1.00;-1.00;99805;1284;1002948;-33
2024/01/27 12:29:23;;;;;;;9.70;1.70;;;;;;;-128.00;-1.00;-1.00;99878;1289;1002888;-33
2024/01/27 12:31:49;;;;;;;8.50;1.80;;;;;;;-128.00;-1.00;-1.00;99744;1284;1002715;-30
2024/01/27 12:34:14;;;;;;;6.30;1.30;;;;;;;-128.00;-1.00;-1.00;99916;1284;1002997;-29
2024/01/27 12:36:43;;;;;;;7.40;1.60;;;;;;;-128.00;-1.00;-1.00;99779;1284;1003540;-31
2024/01/27 12:39:09;;;;;;;10.10;1.70;;;;;;;-128.00;-1.00;-1.00;99887;1284;1046051;-31
2024/01/27 12:41:35;;;;;;;9.30;1.70;;;;;;;-128.00;-1.00;-1.00;99961;1284;1003174;-30
2024/01/27 12:44:01;;;;;;;16.00;1.70;;;;;;;-128.00;-1.00;-1.00;99805;1284;1004906;-32
2024/01/27 12:46:27;;;;;;;18.20;2.10;;;;;;;-128.00;-1.00;-1.00;99888;1284;1012162;-32
2024/01/27 12:48:53;;;;;;;9.80;2.20;;;;;;;-128.00;-1.00;-1.00;99923;1289;1005701;-31
2024/01/27 12:51:19;;;;;;;11.70;1.80;;;;;;;-128.00;-1.00;-1.00;99702;1284;1002804;-30
2024/01/27 12:53:45;;;;;;;8.50;1.70;;;;;;;-128.00;-1.00;-1.00;100014;1284;1003492;-32
2024/01/27 12:56:11;;;;;;;10.80;2.20;;;;;;;-128.00;-1.00;-1.00;99856;1284;1058850;-31
2024/01/27 12:58:37;;;;;;;12.30;1.70;;;;;;;-128.00;-1.00;-1.00;99936;1284;1005349;-30
2024/01/27 13:01:03;;;;;;;13.80;1.70;;;;;;;-128.00;-1.00;-1.00;99626;1287;1003364;-32
2024/01/27 13:03:29;;;;;;;11.00;2.30;;;;;;;-128.00;-1.00;-1.00;99868;1285;1002808;-30
2024/01/27 13:05:56;;;;;;;11.00;1.90;;;;;;;-128.00;-1.00;-1.00;99881;1284;1003114;-30
2024/01/27 13:08:21;;;;;;;12.00;1.70;;;;;;;-128.00;-1.00;-1.00;100016;1284;1059071;-33
2024/01/27 13:10:47;;;;;;;14.60;1.70;;;;;;;-128.00;-1.00;-1.00;99882;1284;1004180;-32
2024/01/27 13:13:14;;;;;;;7.90;1.70;;;;;;;-128.00;-1.00;-1.00;99886;1289;1003205;-31
2024/01/27 13:15:40;;;;;;;11.10;1.80;;;;;;;-128.00;-1.00;-1.00;99881;1285;1003707;-30